sensor_id;sensor_type;location;lat;lon;timestamp;temperature;humidity
23497;DHT22;11925;48.122;11.560;2022-07-23T11:02:24;21.40;99.90
23497;DHT22;11925;48.122;11.560;2022-07-23T11:04:53;20.70;99.90
23497;DHT22;11925;48.122;11.560;2022-07-23T11:07:21;20.70;99.90
23497;DHT22;11925;48.122;11.560;2022-07-23T11:09:50;20.70;99.90
23497;DHT22;11925;48.122;11.560;2022-07-23T11:12:34;20.60;99.90
23497;DHT22;11925;48.122;11.560;2022-07-23T11:15:06;20.60;99.90
23497;DHT22;11925;48.122;11.560;2022-07-23T11:17:37;20.60;99.90
23497;DHT22;11925;48.122;11.560;2022-07-23T11:20:19;20.60;99.90
23497;DHT22;11925;48.122;11.560;2022-07-23T11:22:50;20.50;99.90
23497;DHT22;11925;48.122;11.560;2022-07-23T11:25:34;20.50;99.90
23497;DHT22;11925;48.122;11.560;2022-07-23T11:28:13;20.50;99.90
23497;DHT22;11925;48.122;11.560;2022-07-23T11:30:44;20.70;99.90
23497;DHT22;11925;48.122;11.560;2022-07-23T11:33:19;20.80;99.90
23497;DHT22;11925;48.122;11.560;2022-07-23T11:35:59;21.10;99.90
23497;DHT22;11925;48.122;11.560;2022-07-23T11:38:31;21.30;99.90
23497;DHT22;11925;48.122;11.560;2022-07-23T11:40:59;21.40;99.90
23497;DHT22;11925;48.122;11.560;2022-07-23T11:43:28;21.30;99.90
23497;DHT22;11925;48.122;11.560;2022-07-23T11:45:58;21.40;99.90
23497;DHT22;11925;48.122;11.560;2022-07-23T11:48:30;21.50;99.90
23497;DHT22;11925;48.122;11.560;2022-07-23T11:51:06;21.30;99.90
23497;DHT22;11925;48.122;11.560;2022-07-23T11:53:36;21.10;99.90
23497;DHT22;11925;48.122;11.560;2022-07-23T11:56:06;21.00;99.90
23497;DHT22;11925;48.122;11.560;2022-07-23T11:58:35;20.80;99.90
23497;DHT22;11925;48.122;11.560;2022-07-23T12:01:04;20.80;99.90
23497;DHT22;11925;48.122;11.560;2022-07-23T12:03:34;20.80;99.90
23497;DHT22;11925;48.122;11.560;2022-07-23T12:06:03;20.40;99.90
23497;DHT22;11925;48.122;11.560;2022-07-23T12:08:31;20.70;99.90
23497;DHT22;11925;48.122;11.560;2022-07-23T12:11:00;20.60;99.90
23497;DHT22;11925;48.122;11.560;2022-07-23T12:13:28;20.60;99.90
23497;DHT22;11925;48.122;11.560;2022-07-23T12:15:57;20.60;99.90
23497;DHT22;11925;48.122;11.560;2022-07-23T12:18:27;20.60;99.90
23497;DHT22;11925;48.122;11.560;2022-07-23T12:20:58;20.60;99.90
23497;DHT22;11925;48.122;11.560;2022-07-23T12:23:31;20.70;99.90
23497;DHT22;11925;48.122;11.560;2022-07-23T12:26:02;20.60;99.90
23497;DHT22;11925;48.122;11.560;2022-07-23T12:28:32;20.60;99.90
23497;DHT22;11925;48.122;11.560;2022-07-23T12:31:00;20.50;99.90
23497;DHT22;11925;48.122;11.560;2022-07-23T12:33:31;20.50;99.90
23497;DHT22;11925;48.122;11.560;2022-07-23T12:36:03;20.50;99.90
23497;DHT22;11925;48.122;11.560;2022-07-23T12:38:37;20.50;99.90
23497;DHT22;11925;48.122;11.560;2022-07-23T12:41:06;20.50;99.90
23497;DHT22;11925;48.122;11.560;2022-07-23T12:43:38;20.50;99.90
23497;DHT22;11925;48.122;11.560;2022-07-23T12:46:08;20.50;99.90
23497;DHT22;11925;48.122;11.560;2022-07-23T12:48:38;20.50;99.90
23497;DHT22;11925;48.122;11.560;2022-07-23T12:51:08;20.50;99.90
23497;DHT22;11925;48.122;11.560;2022-07-23T12:53:49;20.50;99.90
23497;DHT22;11925;48.122;11.560;2022-07-23T12:56:19;20.60;99.90
23497;DHT22;11925;48.122;11.560;2022-07-23T12:58:50;20.50;99.90
23497;DHT22;11925;48.122;11.560;2022-07-23T13:01:23;20.50;99.90
23497;DHT22;11925;48.122;11.560;2022-07-23T13:03:59;20.50;99.90
23497;DHT22;11925;48.122;11.560;2022-07-23T13:06:30;20.50;99.90
23497;DHT22;11925;48.122;11.560;2022-07-23T13:09:00;20.50;99.90
23497;DHT22;11925;48.122;11.560;2022-07-23T13:11:29;20.50;99.90
23497;DHT22;11925;48.122;11.560;2022-07-23T13:13:58;20.50;99.90
23497;DHT22;11925;48.122;11.560;2022-07-23T13:16:28;20.50;99.90
23497;DHT22;11925;48.122;11.560;2022-07-23T13:18:57;20.60;99.90
23497;DHT22;11925;48.122;11.560;2022-07-23T13:21:28;20.50;99.90
23497;DHT22;11925;48.122;11.560;2022-07-23T13:23:57;20.50;99.90
23497;DHT22;11925;48.122;11.560;2022-07-23T13:26:26;20.60;99.90
23497;DHT22;11925;48.122;11.560;2022-07-23T13:28:54;20.50;99.90
23497;DHT22;11925;48.122;11.560;2022-07-23T13:31:24;20.50;99.90
23497;DHT22;11925;48.122;11.560;2022-07-23T13:33:52;20.50;99.90
23497;DHT22;11925;48.122;11.560;2022-07-23T13:36:20;20.50;99.90
23497;DHT22;11925;48.122;11.560;2022-07-23T13:38:50;20.50;99.90
23497;DHT22;11925;48.122;11.560;2022-07-23T13:41:19;20.50;99.90
23497;DHT22;11925;48.122;11.560;2022-07-23T13:43:47;20.50;99.90
23497;DHT22;11925;48.122;11.560;2022-07-23T13:46:15;20.50;99.90
23497;DHT22;11925;48.122;11.560;2022-07-23T13:48:47;20.50;99.90
23497;DHT22;11925;48.122;11.560;2022-07-23T13:51:15;20.50;99.90
23497;DHT22;11925;48.122;11.560;2022-07-23T13:53:46;20.50;99.90
23497;DHT22;11925;48.122;11.560;2022-07-23T13:56:17;20.50;99.90
23497;DHT22;11925;48.122;11.560;2022-07-23T13:58:45;20.50;99.90
23497;DHT22;11925;48.122;11.560;2022-07-23T14:01:14;20.50;99.90
23497;DHT22;11925;48.122;11.560;2022-07-23T14:03:44;20.50;99.90
23497;DHT22;11925;48.122;11.560;2022-07-23T14:06:13;20.50;99.90
23497;DHT22;11925;48.122;11.560;2022-07-23T14:08:43;20.50;99.90
23497;DHT22;11925;48.122;11.560;2022-07-23T14:11:12;20.50;99.90
23497;DHT22;11925;48.122;11.560;2022-07-23T14:13:41;20.40;99.90
23497;DHT22;11925;48.122;11.560;2022-07-23T14:16:10;20.40;99.90
23497;DHT22;11925;48.122;11.560;2022-07-23T14:18:38;20.40;99.90
23497;DHT22;11925;48.122;11.560;2022-07-23T14:21:07;20.40;99.90
23497;DHT22;11925;48.122;11.560;2022-07-23T14:23:35;20.40;99.90
23497;DHT22;11925;48.122;11.560;2022-07-23T14:26:05;20.40;99.90
23497;DHT22;11925;48.122;11.560;2022-07-23T14:28:34;20.70;99.90
23497;DHT22;11925;48.122;11.560;2022-07-23T14:31:04;20.40;99.90
23497;DHT22;11925;48.122;11.560;2022-07-23T14:33:46;20.40;99.90
23497;DHT22;11925;48.122;11.560;2022-07-23T14:36:15;20.40;99.90
23497;DHT22;11925;48.122;11.560;2022-07-23T14:38:43;20.40;99.90
23497;DHT22;11925;48.122;11.560;2022-07-23T14:41:12;20.30;99.90
23497;DHT22;11925;48.122;11.560;2022-07-23T14:46:12;20.30;99.90
23497;DHT22;11925;48.122;11.560;2022-07-23T14:48:41;20.40;99.90
23497;DHT22;11925;48.122;11.560;2022-07-23T14:51:09;20.30;99.90
23497;DHT22;11925;48.122;11.560;2022-07-23T14:53:38;20.30;99.90
23497;DHT22;11925;48.122;11.560;2022-07-23T14:56:06;20.30;99.90
23497;DHT22;11925;48.122;11.560;2022-07-23T14:58:35;20.30;99.90
23497;DHT22;11925;48.122;11.560;2022-07-23T15:01:04;20.30;99.90
23497;DHT22;11925;48.122;11.560;2022-07-23T15:03:34;20.40;99.90
23497;DHT22;11925;48.122;11.560;2022-07-23T15:06:09;20.40;99.90
23497;DHT22;11925;48.122;11.560;2022-07-23T15:08:39;20.30;99.90
23497;DHT22;11925;48.122;11.560;2022-07-23T15:11:07;20.20;99.90
23497;DHT22;11925;48.122;11.560;2022-07-23T15:13:37;20.40;99.90
23497;DHT22;11925;48.122;11.560;2022-07-23T15:16:07;20.40;99.90
23497;DHT22;11925;48.122;11.560;2022-07-23T15:18:37;20.30;99.90
23497;DHT22;11925;48.122;11.560;2022-07-23T15:21:06;20.30;99.90
23497;DHT22;11925;48.122;11.560;2022-07-23T15:23:35;20.30;99.90
23497;DHT22;11925;48.122;11.560;2022-07-23T15:26:06;20.30;99.90
23497;DHT22;11925;48.122;11.560;2022-07-23T15:28:36;20.40;99.90
23497;DHT22;11925;48.122;11.560;2022-07-23T15:31:04;20.30;99.90
23497;DHT22;11925;48.122;11.560;2022-07-23T15:33:54;20.50;99.90
23497;DHT22;11925;48.122;11.560;2022-07-23T15:36:23;20.30;99.90
23497;DHT22;11925;48.122;11.560;2022-07-23T15:38:51;20.30;99.90
23497;DHT22;11925;48.122;11.560;2022-07-23T15:41:20;20.30;99.90
23497;DHT22;11925;48.122;11.560;2022-07-23T15:43:50;20.30;99.90
23497;DHT22;11925;48.122;11.560;2022-07-23T15:46:18;20.30;99.90
23497;DHT22;11925;48.122;11.560;2022-07-23T15:48:54;20.40;99.90
23497;DHT22;11925;48.122;11.560;2022-07-23T15:51:23;20.40;99.90
23497;DHT22;11925;48.122;11.560;2022-07-23T15:53:51;20.30;99.90
23497;DHT22;11925;48.122;11.560;2022-07-23T15:56:21;20.40;99.90
23497;DHT22;11925;48.122;11.560;2022-07-23T15:58:49;20.40;99.90
23497;DHT22;11925;48.122;11.560;2022-07-23T16:01:17;20.30;99.90
23497;DHT22;11925;48.122;11.560;2022-07-23T16:03:46;20.40;99.90
23497;DHT22;11925;48.122;11.560;2022-07-23T16:06:16;20.40;99.90
23497;DHT22;11925;48.122;11.560;2022-07-23T16:08:45;20.40;99.90
23497;DHT22;11925;48.122;11.560;2022-07-23T16:11:14;20.30;99.90
23497;DHT22;11925;48.122;11.560;2022-07-23T16:13:43;20.30;99.90
23497;DHT22;11925;48.122;11.560;2022-07-23T16:16:11;20.30;99.90
23497;DHT22;11925;48.122;11.560;2022-07-23T16:18:40;20.30;99.90
23497;DHT22;11925;48.122;11.560;2022-07-23T16:21:08;20.30;99.90
23497;DHT22;11925;48.122;11.560;2022-07-23T16:23:43;20.30;99.90
23497;DHT22;11925;48.122;11.560;2022-07-23T16:26:12;20.30;99.90
23497;DHT22;11925;48.122;11.560;2022-07-23T16:28:42;20.30;99.90
23497;DHT22;11925;48.122;11.560;2022-07-23T16:31:10;20.40;99.90
23497;DHT22;11925;48.122;11.560;2022-07-23T16:33:39;20.40;99.90
23497;DHT22;11925;48.122;11.560;2022-07-23T16:36:08;20.40;99.90
23497;DHT22;11925;48.122;11.560;2022-07-23T16:38:37;20.40;99.90
23497;DHT22;11925;48.122;11.560;2022-07-23T16:41:07;20.40;99.90
23497;DHT22;11925;48.122;11.560;2022-07-23T16:43:36;20.30;99.90
23497;DHT22;11925;48.122;11.560;2022-07-23T16:46:05;20.30;99.90
23497;DHT22;11925;48.122;11.560;2022-07-23T16:51:03;20.50;99.90
23497;DHT22;11925;48.122;11.560;2022-07-23T16:53:33;20.60;99.90
23497;DHT22;11925;48.122;11.560;2022-07-23T16:56:02;20.60;99.90
23497;DHT22;11925;48.122;11.560;2022-07-23T16:58:32;20.40;99.90
23497;DHT22;11925;48.122;11.560;2022-07-23T17:01:01;20.40;99.90
23497;DHT22;11925;48.122;11.560;2022-07-23T17:03:29;20.40;99.90
23497;DHT22;11925;48.122;11.560;2022-07-23T17:05:58;20.40;99.90
23497;DHT22;11925;48.122;11.560;2022-07-23T17:08:26;20.40;99.90
23497;DHT22;11925;48.122;11.560;2022-07-23T17:10:55;20.40;99.90
23497;DHT22;11925;48.122;11.560;2022-07-23T17:13:23;20.40;99.90
23497;DHT22;11925;48.122;11.560;2022-07-23T17:15:54;20.40;99.90
23497;DHT22;11925;48.122;11.560;2022-07-23T17:18:23;20.40;99.90
23497;DHT22;11925;48.122;11.560;2022-07-23T17:20:52;20.40;99.90
23497;DHT22;11925;48.122;11.560;2022-07-23T17:23:20;20.40;99.90
23497;DHT22;11925;48.122;11.560;2022-07-23T17:25:49;20.40;99.90
23497;DHT22;11925;48.122;11.560;2022-07-23T17:28:17;20.40;99.90
23497;DHT22;11925;48.122;11.560;2022-07-23T17:30:46;20.50;99.90
23497;DHT22;11925;48.122;11.560;2022-07-23T17:33:15;20.50;99.90
23497;DHT22;11925;48.122;11.560;2022-07-23T17:35:44;20.50;99.90
23497;DHT22;11925;48.122;11.560;2022-07-23T17:38:12;20.50;99.90
23497;DHT22;11925;48.122;11.560;2022-07-23T17:40:41;20.50;99.90
23497;DHT22;11925;48.122;11.560;2022-07-23T17:43:10;20.50;99.90
23497;DHT22;11925;48.122;11.560;2022-07-23T17:45:38;20.50;99.90
23497;DHT22;11925;48.122;11.560;2022-07-23T17:48:09;20.50;99.90
23497;DHT22;11925;48.122;11.560;2022-07-23T17:50:40;20.50;99.90
23497;DHT22;11925;48.122;11.560;2022-07-23T17:53:08;20.50;99.90
23497;DHT22;11925;48.122;11.560;2022-07-23T17:55:36;20.50;99.90
23497;DHT22;11925;48.122;11.560;2022-07-23T17:58:06;20.50;99.90
23497;DHT22;11925;48.122;11.560;2022-07-23T18:00:38;20.40;99.90
23497;DHT22;11925;48.122;11.560;2022-07-23T18:03:06;20.40;99.90
23497;DHT22;11925;48.122;11.560;2022-07-23T18:05:35;20.40;99.90
23497;DHT22;11925;48.122;11.560;2022-07-23T18:08:06;20.40;99.90
23497;DHT22;11925;48.122;11.560;2022-07-23T18:10:35;20.40;99.90
23497;DHT22;11925;48.122;11.560;2022-07-23T18:13:05;20.60;99.90
23497;DHT22;11925;48.122;11.560;2022-07-23T18:15:34;20.40;99.90
23497;DHT22;11925;48.122;11.560;2022-07-23T18:18:03;20.40;99.90
23497;DHT22;11925;48.122;11.560;2022-07-23T18:20:31;20.40;99.90
23497;DHT22;11925;48.122;11.560;2022-07-23T18:23:05;20.40;99.90
23497;DHT22;11925;48.122;11.560;2022-07-23T18:25:34;20.40;99.90
23497;DHT22;11925;48.122;11.560;2022-07-23T18:28:02;20.40;99.90
23497;DHT22;11925;48.122;11.560;2022-07-23T18:30:31;20.40;99.90
23497;DHT22;11925;48.122;11.560;2022-07-23T18:33:00;20.40;99.90
23497;DHT22;11925;48.122;11.560;2022-07-23T18:35:33;20.40;99.90
23497;DHT22;11925;48.122;11.560;2022-07-23T18:38:02;20.40;99.90
23497;DHT22;11925;48.122;11.560;2022-07-23T18:40:33;20.30;99.90
23497;DHT22;11925;48.122;11.560;2022-07-23T18:43:01;20.40;99.90
23497;DHT22;11925;48.122;11.560;2022-07-23T18:45:30;20.40;99.90
23497;DHT22;11925;48.122;11.560;2022-07-23T18:48:00;20.50;99.90
23497;DHT22;11925;48.122;11.560;2022-07-23T18:50:29;20.60;99.90
23497;DHT22;11925;48.122;11.560;2022-07-23T18:53:04;20.60;99.90
23497;DHT22;11925;48.122;11.560;2022-07-23T18:55:34;20.70;99.90
23497;DHT22;11925;48.122;11.560;2022-07-23T18:58:05;20.70;99.90
23497;DHT22;11925;48.122;11.560;2022-07-23T19:00:35;20.60;99.90
23497;DHT22;11925;48.122;11.560;2022-07-23T19:03:04;20.70;99.90
23497;DHT22;11925;48.122;11.560;2022-07-23T19:05:34;20.70;99.90
23497;DHT22;11925;48.122;11.560;2022-07-23T19:08:03;20.50;99.90
23497;DHT22;11925;48.122;11.560;2022-07-23T19:10:35;20.70;99.90
23497;DHT22;11925;48.122;11.560;2022-07-23T19:13:05;20.60;99.90
23497;DHT22;11925;48.122;11.560;2022-07-23T19:15:34;20.60;99.90
23497;DHT22;11925;48.122;11.560;2022-07-23T19:18:03;20.50;99.90
23497;DHT22;11925;48.122;11.560;2022-07-23T19:20:31;20.50;99.90
23497;DHT22;11925;48.122;11.560;2022-07-23T19:23:00;20.50;99.90
23497;DHT22;11925;48.122;11.560;2022-07-23T19:25:28;20.50;99.90
23497;DHT22;11925;48.122;11.560;2022-07-23T19:27:58;20.50;99.90
23497;DHT22;11925;48.122;11.560;2022-07-23T19:30:27;20.40;99.90
23497;DHT22;11925;48.122;11.560;2022-07-23T19:32:55;20.50;99.90
23497;DHT22;11925;48.122;11.560;2022-07-23T19:35:23;20.40;99.90
23497;DHT22;11925;48.122;11.560;2022-07-23T19:37:52;20.50;99.90
23497;DHT22;11925;48.122;11.560;2022-07-23T19:40:20;20.30;99.90
23497;DHT22;11925;48.122;11.560;2022-07-23T19:42:49;20.50;99.90
23497;DHT22;11925;48.122;11.560;2022-07-23T19:45:19;20.50;99.90
23497;DHT22;11925;48.122;11.560;2022-07-23T19:47:47;20.50;99.90
23497;DHT22;11925;48.122;11.560;2022-07-23T19:50:21;20.60;99.90
23497;DHT22;11925;48.122;11.560;2022-07-23T19:52:50;20.50;99.90
23497;DHT22;11925;48.122;11.560;2022-07-23T19:55:19;20.50;99.90
23497;DHT22;11925;48.122;11.560;2022-07-23T19:57:48;20.50;99.90
23497;DHT22;11925;48.122;11.560;2022-07-23T20:00:19;20.50;99.90
23497;DHT22;11925;48.122;11.560;2022-07-23T20:02:47;20.30;99.90
23497;DHT22;11925;48.122;11.560;2022-07-23T20:05:22;20.50;99.90
23497;DHT22;11925;48.122;11.560;2022-07-23T20:07:50;20.50;99.90
23497;DHT22;11925;48.122;11.560;2022-07-23T20:10:18;20.50;99.90
23497;DHT22;11925;48.122;11.560;2022-07-23T20:12:47;20.40;99.90
23497;DHT22;11925;48.122;11.560;2022-07-23T20:15:15;20.50;99.90
23497;DHT22;11925;48.122;11.560;2022-07-23T20:17:46;20.50;99.90
23497;DHT22;11925;48.122;11.560;2022-07-23T20:20:14;20.40;99.90
23497;DHT22;11925;48.122;11.560;2022-07-23T20:22:42;20.40;99.90
23497;DHT22;11925;48.122;11.560;2022-07-23T20:25:11;20.50;99.90
23497;DHT22;11925;48.122;11.560;2022-07-23T20:27:39;20.60;99.90
23497;DHT22;11925;48.122;11.560;2022-07-23T20:30:09;20.60;99.90
23497;DHT22;11925;48.122;11.560;2022-07-23T20:32:37;20.60;99.90
23497;DHT22;11925;48.122;11.560;2022-07-23T20:35:08;20.60;99.90
23497;DHT22;11925;48.122;11.560;2022-07-23T20:37:36;20.60;99.90
23497;DHT22;11925;48.122;11.560;2022-07-23T20:40:05;20.10;99.90
23497;DHT22;11925;48.122;11.560;2022-07-23T20:42:36;20.80;99.90
23497;DHT22;11925;48.122;11.560;2022-07-23T20:45:05;20.90;99.90
23497;DHT22;11925;48.122;11.560;2022-07-23T20:47:34;21.00;99.90
23497;DHT22;11925;48.122;11.560;2022-07-23T20:50:03;20.90;99.90
23497;DHT22;11925;48.122;11.560;2022-07-23T20:52:42;20.90;99.90
23497;DHT22;11925;48.122;11.560;2022-07-23T20:55:11;20.90;99.90
23497;DHT22;11925;48.122;11.560;2022-07-23T20:57:40;20.90;99.90
23497;DHT22;11925;48.122;11.560;2022-07-23T21:00:13;21.10;99.90
23497;DHT22;11925;48.122;11.560;2022-07-23T21:02:42;21.10;99.90
23497;DHT22;11925;48.122;11.560;2022-07-23T21:05:11;21.10;99.90
23497;DHT22;11925;48.122;11.560;2022-07-23T21:07:40;21.20;99.90
23497;DHT22;11925;48.122;11.560;2022-07-23T21:10:12;21.10;99.90
23497;DHT22;11925;48.122;11.560;2022-07-23T21:12:41;21.10;99.90
23497;DHT22;11925;48.122;11.560;2022-07-23T21:15:10;21.10;99.90
23497;DHT22;11925;48.122;11.560;2022-07-23T21:17:38;21.10;99.90
23497;DHT22;11925;48.122;11.560;2022-07-23T21:20:13;21.20;99.90
23497;DHT22;11925;48.122;11.560;2022-07-23T21:22:41;21.10;99.90
23497;DHT22;11925;48.122;11.560;2022-07-23T21:25:12;21.10;99.90
23497;DHT22;11925;48.122;11.560;2022-07-23T21:27:41;21.10;99.90
23497;DHT22;11925;48.122;11.560;2022-07-23T21:30:11;21.20;99.90
23497;DHT22;11925;48.122;11.560;2022-07-23T21:32:39;21.10;99.90
23497;DHT22;11925;48.122;11.560;2022-07-23T21:35:08;21.00;99.90
23497;DHT22;11925;48.122;11.560;2022-07-23T21:37:37;20.90;99.90
23497;DHT22;11925;48.122;11.560;2022-07-23T21:42:36;20.80;99.90
23497;DHT22;11925;48.122;11.560;2022-07-23T21:45:05;21.40;99.90
23497;DHT22;11925;48.122;11.560;2022-07-23T21:47:33;20.80;99.90
23497;DHT22;11925;48.122;11.560;2022-07-23T21:50:02;20.70;99.90
23497;DHT22;11925;48.122;11.560;2022-07-23T21:52:31;20.70;99.90
23497;DHT22;11925;48.122;11.560;2022-07-23T21:54:59;20.70;99.90
23497;DHT22;11925;48.122;11.560;2022-07-23T21:57:28;20.70;99.90
23497;DHT22;11925;48.122;11.560;2022-07-23T21:59:58;20.60;99.90
23497;DHT22;11925;48.122;11.560;2022-07-23T22:02:26;20.70;99.90
23497;DHT22;11925;48.122;11.560;2022-07-23T22:04:55;20.60;99.90
23497;DHT22;11925;48.122;11.560;2022-07-23T22:07:23;20.60;99.90
23497;DHT22;11925;48.122;11.560;2022-07-23T22:09:51;20.60;99.90
23497;DHT22;11925;48.122;11.560;2022-07-23T22:12:27;20.60;99.90
23497;DHT22;11925;48.122;11.560;2022-07-23T22:14:56;20.60;99.90
23497;DHT22;11925;48.122;11.560;2022-07-23T22:17:25;20.60;99.90
23497;DHT22;11925;48.122;11.560;2022-07-23T22:19:54;20.60;99.90
23497;DHT22;11925;48.122;11.560;2022-07-23T22:22:22;20.60;99.90
23497;DHT22;11925;48.122;11.560;2022-07-23T22:24:50;20.60;99.90
23497;DHT22;11925;48.122;11.560;2022-07-23T22:27:19;20.60;99.90
23497;DHT22;11925;48.122;11.560;2022-07-23T22:29:47;20.60;99.90
23497;DHT22;11925;48.122;11.560;2022-07-23T22:32:15;20.60;99.90
23497;DHT22;11925;48.122;11.560;2022-07-23T22:34:51;20.60;99.90
23497;DHT22;11925;48.122;11.560;2022-07-23T22:37:19;20.60;99.90
23497;DHT22;11925;48.122;11.560;2022-07-23T22:39:48;20.60;99.90
23497;DHT22;11925;48.122;11.560;2022-07-23T22:42:16;20.40;99.90
23497;DHT22;11925;48.122;11.560;2022-07-23T22:44:44;20.70;99.90
23497;DHT22;11925;48.122;11.560;2022-07-23T22:47:13;20.60;99.90
23497;DHT22;11925;48.122;11.560;2022-07-23T22:49:41;20.60;99.90
23497;DHT22;11925;48.122;11.560;2022-07-23T22:52:13;20.60;99.90
23497;DHT22;11925;48.122;11.560;2022-07-23T22:54:42;20.60;99.90
23497;DHT22;11925;48.122;11.560;2022-07-23T22:57:10;20.60;99.90
23497;DHT22;11925;48.122;11.560;2022-07-23T22:59:39;20.60;99.90
23497;DHT22;11925;48.122;11.560;2022-07-23T23:02:07;20.60;99.90
23497;DHT22;11925;48.122;11.560;2022-07-23T23:04:36;20.60;99.90
23497;DHT22;11925;48.122;11.560;2022-07-23T23:07:04;20.60;99.90
23497;DHT22;11925;48.122;11.560;2022-07-23T23:09:34;20.60;99.90
23497;DHT22;11925;48.122;11.560;2022-07-23T23:12:03;20.60;99.90
23497;DHT22;11925;48.122;11.560;2022-07-23T23:14:31;20.60;99.90
23497;DHT22;11925;48.122;11.560;2022-07-23T23:17:00;20.60;99.90
23497;DHT22;11925;48.122;11.560;2022-07-23T23:19:28;20.60;99.90
23497;DHT22;11925;48.122;11.560;2022-07-23T23:21:56;20.50;99.90
23497;DHT22;11925;48.122;11.560;2022-07-23T23:24:25;20.60;99.90
23497;DHT22;11925;48.122;11.560;2022-07-23T23:26:54;20.60;99.90
23497;DHT22;11925;48.122;11.560;2022-07-23T23:29:22;20.60;99.90
23497;DHT22;11925;48.122;11.560;2022-07-23T23:31:51;20.50;99.90
23497;DHT22;11925;48.122;11.560;2022-07-23T23:34:19;20.60;99.90
23497;DHT22;11925;48.122;11.560;2022-07-23T23:36:47;20.50;99.90
23497;DHT22;11925;48.122;11.560;2022-07-23T23:39:16;20.50;99.90
23497;DHT22;11925;48.122;11.560;2022-07-23T23:41:44;20.50;99.90
23497;DHT22;11925;48.122;11.560;2022-07-23T23:44:14;20.50;99.90
23497;DHT22;11925;48.122;11.560;2022-07-23T23:46:44;20.50;99.90
23497;DHT22;11925;48.122;11.560;2022-07-23T23:49:13;20.50;99.90
23497;DHT22;11925;48.122;11.560;2022-07-23T23:51:41;20.50;99.90
23497;DHT22;11925;48.122;11.560;2022-07-23T23:54:13;20.50;99.90
23497;DHT22;11925;48.122;11.560;2022-07-23T23:56:45;20.50;99.90
23497;DHT22;11925;48.122;11.560;2022-07-23T23:59:14;20.50;99.90
